Terminal Aerodrome Forecast
Issued by NWS Hastings, NE

Home | Current Version | Previous Version | Text Only | Print | Product List | Glossary On
Versions: 1 2 3 4 5 6 7 8 9 10 11 12 13 14 15 16 17 18 19 20 21 22 23 24 25 26 27 28 29 30
115
FTUS43 KGID 261733
TAFGRI
TAF
KGRI 261733Z 2618/2718 34016G24KT P6SM BKN020
     FM262100 33015G23KT P6SM SCT035
     FM270000 34013KT P6SM FEW200
     FM270200 35008KT P6SM FEW250
     FM271500 36004KT P6SM BKN080=

USA.gov is the U.S. government's official web portal to all federal, state and local government web resources and services.